This is the latest recevied weather packets stored in our database for station/object N5PRN. If no packets are shown the sender has not sent any weather packets the latest 10 day(s).
| Time | Temp. | Humidity | Pressure | Rain* | Wind** | Luminosity | Snow |
|---|---|---|---|---|---|---|---|
| 1777338242 | 27.22° C | 74% | 1012.7 hPa | 0 mm | - | 0 W/m² | - |
| 1777337937 | 27.22° C | 75% | 1012.6 hPa | 0 mm | - | 0 W/m² | - |
| 1777337635 | 27.22° C | 75% | 1012.6 hPa | 0 mm | - | 0 W/m² | - |
| 1777336426 | 27.78° C | 74% | 1012.2 hPa | 0 mm | - | 9 W/m² | - |
| 1777336123 | 27.78° C | 74% | 1012.2 hPa | 0 mm | - | 13 W/m² | - |
| 1777331577 | 29.44° C | 76% | 1011.5 hPa | 0 mm | - | 101 W/m² | - |
| 1777328251 | 30° C | 73% | 1011.4 hPa | 0 mm | - | 139 W/m² | - |
| 1777312786 | 28.33° C | 82% | 1012.8 hPa | 0 mm | - | 515 W/m² | - |
| 1777311574 | 27.78° C | 84% | 1012.9 hPa | 0 mm | - | 362 W/m² | - |
| 1777311272 | 27.78° C | 84% | 1012.9 hPa | 0 mm | - | 254 W/m² | - |
| 1777310970 | 27.78° C | 84% | 1013 hPa | 0 mm | - | 335 W/m² | - |
| 1777310667 | 27.78° C | 84% | 1013 hPa | 0 mm | - | 498 W/m² | - |
| 1777310365 | 27.22° C | 84% | 1013.3 hPa | 0 mm | - | 301 W/m² | - |
| 1777310061 | 27.22° C | 84% | 1013.2 hPa | 0 mm | - | 320 W/m² | - |
| 1777309457 | 27.22° C | 85% | 1012.9 hPa | 0 mm | - | 296 W/m² | - |
| 1777309154 | 27.22° C | 85% | 1012.8 hPa | 0 mm | - | 242 W/m² | - |
| 1777308547 | 27.22° C | 86% | 1012.9 hPa | 0 mm | - | 383 W/m² | - |
| 1777306119 | 26.11° C | 88% | 1013.1 hPa | 0 mm | - | 308 W/m² | - |
| 1777304599 | 25.56° C | 89% | 1012.9 hPa | 0 mm | - | 219 W/m² | - |
| 1777304295 | 25.56° C | 89% | 1012.9 hPa | 0 mm | - | 102 W/m² | - |
| 1777303987 | 25.56° C | 89% | 1013 hPa | 0 mm | - | 219 W/m² | - |
| 1777303381 | 25° C | 89% | 1012.7 hPa | 0 mm | - | 294 W/m² | - |
| 1777303078 | 25° C | 89% | 1012.6 hPa | 0 mm | - | 173 W/m² | - |
| 1777302172 | 25° C | 89% | 1012.5 hPa | 0 mm | - | 192 W/m² | - |
| 1777300657 | 25° C | 90% | 1012.5 hPa | 0 mm | - | 164 W/m² | - |
* Rain latest hour (hover to see other rain measurements)
** Current wind speed in m/s (hover to see current wind gust speed)